sensor_id;sensor_type;location;lat;lon;timestamp;pressure;altitude;pressure_sealevel;temperature;humidity
9905;BME280;4991;43.566;27.820;2023-08-08T00:01:17;98449.22;;;20.30;100.00
9905;BME280;4991;43.566;27.820;2023-08-08T00:03:42;98434.50;;;20.22;100.00
9905;BME280;4991;43.566;27.820;2023-08-08T00:06:08;98443.63;;;20.26;100.00
9905;BME280;4991;43.566;27.820;2023-08-08T00:08:34;98424.88;;;20.13;100.00
9905;BME280;4991;43.566;27.820;2023-08-08T00:10:59;98438.31;;;20.14;100.00
9905;BME280;4991;43.566;27.820;2023-08-08T00:13:25;98439.75;;;20.05;100.00
9905;BME280;4991;43.566;27.820;2023-08-08T00:15:50;98443.28;;;20.02;100.00
9905;BME280;4991;43.566;27.820;2023-08-08T00:18:16;98434.97;;;20.02;100.00
9905;BME280;4991;43.566;27.820;2023-08-08T00:20:42;98428.53;;;19.91;100.00
9905;BME280;4991;43.566;27.820;2023-08-08T00:23:07;98428.53;;;19.91;100.00
9905;BME280;4991;43.566;27.820;2023-08-08T00:25:33;98426.59;;;19.95;100.00
9905;BME280;4991;43.566;27.820;2023-08-08T00:27:58;98422.66;;;19.96;100.00
9905;BME280;4991;43.566;27.820;2023-08-08T00:30:24;98434.16;;;19.98;100.00
9905;BME280;4991;43.566;27.820;2023-08-08T00:32:50;98427.13;;;20.04;100.00
9905;BME280;4991;43.566;27.820;2023-08-08T00:35:15;98436.63;;;20.06;100.00
9905;BME280;4991;43.566;27.820;2023-08-08T00:37:41;98444.56;;;20.08;100.00
9905;BME280;4991;43.566;27.820;2023-08-08T00:40:07;98441.78;;;20.08;100.00
9905;BME280;4991;43.566;27.820;2023-08-08T00:42:33;98433.91;;;20.10;100.00
9905;BME280;4991;43.566;27.820;2023-08-08T00:44:58;98443.75;;;20.07;100.00
9905;BME280;4991;43.566;27.820;2023-08-08T00:47:32;98448.91;;;20.09;100.00
9905;BME280;4991;43.566;27.820;2023-08-08T00:50:00;98433.50;;;20.08;100.00
9905;BME280;4991;43.566;27.820;2023-08-08T00:52:26;98438.28;;;20.11;100.00
9905;BME280;4991;43.566;27.820;2023-08-08T00:54:52;98447.34;;;20.11;100.00
9905;BME280;4991;43.566;27.820;2023-08-08T00:57:18;98444.19;;;20.09;100.00
9905;BME280;4991;43.566;27.820;2023-08-08T00:59:44;98456.44;;;20.12;100.00
9905;BME280;4991;43.566;27.820;2023-08-08T01:02:11;98452.44;;;20.06;100.00
9905;BME280;4991;43.566;27.820;2023-08-08T01:04:37;98452.84;;;20.08;100.00
9905;BME280;4991;43.566;27.820;2023-08-08T01:07:12;98461.88;;;20.05;100.00
9905;BME280;4991;43.566;27.820;2023-08-08T01:10:24;98458.66;;;19.99;100.00
9905;BME280;4991;43.566;27.820;2023-08-08T01:12:52;98459.41;;;19.96;100.00
9905;BME280;4991;43.566;27.820;2023-08-08T01:15:19;98466.13;;;19.99;100.00
9905;BME280;4991;43.566;27.820;2023-08-08T01:17:46;98464.38;;;19.87;100.00
9905;BME280;4991;43.566;27.820;2023-08-08T01:20:14;98461.63;;;19.87;100.00
9905;BME280;4991;43.566;27.820;2023-08-08T01:25:34;98455.22;;;19.80;100.00
9905;BME280;4991;43.566;27.820;2023-08-08T01:28:00;98457.91;;;19.76;100.00
9905;BME280;4991;43.566;27.820;2023-08-08T01:30:26;98457.63;;;19.85;100.00
9905;BME280;4991;43.566;27.820;2023-08-08T01:32:52;98461.13;;;19.82;100.00
9905;BME280;4991;43.566;27.820;2023-08-08T01:35:17;98462.25;;;19.77;100.00
9905;BME280;4991;43.566;27.820;2023-08-08T01:37:49;98468.44;;;19.67;100.00
9905;BME280;4991;43.566;27.820;2023-08-08T01:40:17;98459.31;;;19.63;100.00
9905;BME280;4991;43.566;27.820;2023-08-08T01:42:45;98468.00;;;19.65;100.00
9905;BME280;4991;43.566;27.820;2023-08-08T01:45:11;98456.94;;;19.65;100.00
9905;BME280;4991;43.566;27.820;2023-08-08T01:47:37;98462.41;;;19.62;100.00
9905;BME280;4991;43.566;27.820;2023-08-08T01:50:03;98461.25;;;19.63;100.00
9905;BME280;4991;43.566;27.820;2023-08-08T01:52:29;98467.94;;;19.62;100.00
9905;BME280;4991;43.566;27.820;2023-08-08T01:54:54;98461.94;;;19.56;100.00
9905;BME280;4991;43.566;27.820;2023-08-08T01:57:20;98461.94;;;19.56;100.00
9905;BME280;4991;43.566;27.820;2023-08-08T01:59:45;98461.09;;;19.52;100.00
9905;BME280;4991;43.566;27.820;2023-08-08T02:02:11;98459.50;;;19.51;100.00
9905;BME280;4991;43.566;27.820;2023-08-08T02:04:37;98456.25;;;19.46;100.00
9905;BME280;4991;43.566;27.820;2023-08-08T02:07:02;98457.66;;;19.36;100.00
9905;BME280;4991;43.566;27.820;2023-08-08T02:09:28;98458.88;;;19.39;100.00
9905;BME280;4991;43.566;27.820;2023-08-08T02:11:54;98445.38;;;19.34;100.00
9905;BME280;4991;43.566;27.820;2023-08-08T02:14:22;98448.41;;;19.28;100.00
9905;BME280;4991;43.566;27.820;2023-08-08T02:16:47;98461.88;;;19.30;100.00
9905;BME280;4991;43.566;27.820;2023-08-08T02:19:13;98454.25;;;19.23;100.00
9905;BME280;4991;43.566;27.820;2023-08-08T02:21:40;98451.41;;;19.16;100.00
9905;BME280;4991;43.566;27.820;2023-08-08T02:24:06;98451.31;;;19.13;100.00
9905;BME280;4991;43.566;27.820;2023-08-08T02:26:31;98443.78;;;19.10;100.00
9905;BME280;4991;43.566;27.820;2023-08-08T02:28:57;98452.69;;;19.00;100.00
9905;BME280;4991;43.566;27.820;2023-08-08T02:31:22;98455.44;;;19.00;100.00
9905;BME280;4991;43.566;27.820;2023-08-08T02:33:49;98458.44;;;18.91;100.00
9905;BME280;4991;43.566;27.820;2023-08-08T02:36:18;98448.50;;;18.87;100.00
9905;BME280;4991;43.566;27.820;2023-08-08T02:38:44;98450.75;;;18.81;100.00
9905;BME280;4991;43.566;27.820;2023-08-08T02:41:10;98455.38;;;18.77;100.00
9905;BME280;4991;43.566;27.820;2023-08-08T02:43:36;98460.06;;;18.73;100.00
9905;BME280;4991;43.566;27.820;2023-08-08T02:46:02;98465.13;;;18.71;100.00
9905;BME280;4991;43.566;27.820;2023-08-08T02:48:29;98466.31;;;18.70;100.00
9905;BME280;4991;43.566;27.820;2023-08-08T02:50:55;98448.97;;;18.51;100.00
9905;BME280;4991;43.566;27.820;2023-08-08T02:53:20;98475.81;;;18.73;100.00
9905;BME280;4991;43.566;27.820;2023-08-08T02:55:46;98486.78;;;18.69;100.00
9905;BME280;4991;43.566;27.820;2023-08-08T02:58:12;98473.19;;;18.61;100.00
9905;BME280;4991;43.566;27.820;2023-08-08T03:00:38;98475.28;;;18.67;100.00
9905;BME280;4991;43.566;27.820;2023-08-08T03:03:03;98475.88;;;18.57;100.00
9905;BME280;4991;43.566;27.820;2023-08-08T03:05:29;98495.78;;;18.66;100.00
9905;BME280;4991;43.566;27.820;2023-08-08T03:07:55;98504.34;;;18.61;100.00
9905;BME280;4991;43.566;27.820;2023-08-08T03:10:20;98504.78;;;18.63;100.00
9905;BME280;4991;43.566;27.820;2023-08-08T03:12:46;98519.59;;;18.55;100.00
9905;BME280;4991;43.566;27.820;2023-08-08T03:15:11;98517.81;;;18.47;100.00
9905;BME280;4991;43.566;27.820;2023-08-08T03:17:37;98521.84;;;18.50;100.00
9905;BME280;4991;43.566;27.820;2023-08-08T03:20:03;98521.47;;;18.51;100.00
9905;BME280;4991;43.566;27.820;2023-08-08T03:22:31;98527.91;;;18.59;100.00
9905;BME280;4991;43.566;27.820;2023-08-08T03:24:56;98526.34;;;18.58;100.00
9905;BME280;4991;43.566;27.820;2023-08-08T03:27:22;98522.19;;;18.48;100.00
9905;BME280;4991;43.566;27.820;2023-08-08T03:29:48;98525.81;;;18.52;100.00
9905;BME280;4991;43.566;27.820;2023-08-08T03:32:13;98534.53;;;18.54;100.00
9905;BME280;4991;43.566;27.820;2023-08-08T03:34:39;98531.78;;;18.54;100.00
9905;BME280;4991;43.566;27.820;2023-08-08T03:37:04;98531.69;;;18.51;100.00
9905;BME280;4991;43.566;27.820;2023-08-08T03:39:30;98530.09;;;18.50;100.00
9905;BME280;4991;43.566;27.820;2023-08-08T03:41:56;98530.91;;;18.50;100.00
9905;BME280;4991;43.566;27.820;2023-08-08T03:44:22;98538.81;;;18.52;100.00
9905;BME280;4991;43.566;27.820;2023-08-08T03:46:47;98542.44;;;18.56;100.00
9905;BME280;4991;43.566;27.820;2023-08-08T03:49:13;98540.03;;;18.54;100.00
9905;BME280;4991;43.566;27.820;2023-08-08T03:51:38;98544.63;;;18.47;100.00
9905;BME280;4991;43.566;27.820;2023-08-08T03:54:04;98537.13;;;18.47;100.00
9905;BME280;4991;43.566;27.820;2023-08-08T03:56:30;98548.59;;;18.49;100.00
9905;BME280;4991;43.566;27.820;2023-08-08T03:58:55;98546.66;;;18.50;100.00
9905;BME280;4991;43.566;27.820;2023-08-08T04:01:22;98553.38;;;18.52;100.00
9905;BME280;4991;43.566;27.820;2023-08-08T04:03:48;98543.44;;;18.48;100.00
9905;BME280;4991;43.566;27.820;2023-08-08T04:06:13;98537.84;;;18.44;100.00
9905;BME280;4991;43.566;27.820;2023-08-08T04:08:39;98558.41;;;18.47;100.00
9905;BME280;4991;43.566;27.820;2023-08-08T04:11:05;98556.88;;;18.49;100.00
9905;BME280;4991;43.566;27.820;2023-08-08T04:13:30;98544.53;;;18.43;100.00
9905;BME280;4991;43.566;27.820;2023-08-08T04:15:56;98556.38;;;18.44;100.00
9905;BME280;4991;43.566;27.820;2023-08-08T04:18:21;98567.91;;;18.49;100.00
9905;BME280;4991;43.566;27.820;2023-08-08T04:20:47;98577.88;;;18.54;100.00
9905;BME280;4991;43.566;27.820;2023-08-08T04:23:13;98580.63;;;18.54;100.00
9905;BME280;4991;43.566;27.820;2023-08-08T04:25:39;98585.50;;;18.60;100.00
9905;BME280;4991;43.566;27.820;2023-08-08T04:28:04;98588.25;;;18.60;100.00
9905;BME280;4991;43.566;27.820;2023-08-08T04:30:30;98583.16;;;18.62;100.00
9905;BME280;4991;43.566;27.820;2023-08-08T04:32:55;98604.66;;;18.72;100.00
9905;BME280;4991;43.566;27.820;2023-08-08T04:35:21;98592.97;;;18.60;100.00
9905;BME280;4991;43.566;27.820;2023-08-08T04:37:46;98608.06;;;18.66;100.00
9905;BME280;4991;43.566;27.820;2023-08-08T04:40:12;98617.88;;;18.63;100.00
9905;BME280;4991;43.566;27.820;2023-08-08T04:42:38;98618.59;;;18.60;100.00
9905;BME280;4991;43.566;27.820;2023-08-08T04:45:04;98618.59;;;18.60;100.00
9905;BME280;4991;43.566;27.820;2023-08-08T04:47:30;98617.78;;;18.60;100.00
9905;BME280;4991;43.566;27.820;2023-08-08T04:49:55;98617.16;;;18.66;100.00
9905;BME280;4991;43.566;27.820;2023-08-08T04:52:21;98620.19;;;18.61;100.00
9905;BME280;4991;43.566;27.820;2023-08-08T04:54:47;98635.00;;;18.72;100.00
9905;BME280;4991;43.566;27.820;2023-08-08T04:57:12;98639.22;;;18.66;100.00
9905;BME280;4991;43.566;27.820;2023-08-08T04:59:38;98653.13;;;18.54;100.00
9905;BME280;4991;43.566;27.820;2023-08-08T05:02:04;98662.47;;;18.50;100.00
9905;BME280;4991;43.566;27.820;2023-08-08T05:04:31;98681.03;;;18.37;100.00
9905;BME280;4991;43.566;27.820;2023-08-08T05:06:56;98681.34;;;18.32;100.00
9905;BME280;4991;43.566;27.820;2023-08-08T05:09:23;98699.75;;;18.44;100.00
9905;BME280;4991;43.566;27.820;2023-08-08T05:11:52;98696.97;;;18.28;100.00
9905;BME280;4991;43.566;27.820;2023-08-08T05:14:19;98700.09;;;18.27;100.00
9905;BME280;4991;43.566;27.820;2023-08-08T05:16:45;98712.81;;;18.31;100.00
9905;BME280;4991;43.566;27.820;2023-08-08T05:19:11;98701.84;;;18.19;100.00
9905;BME280;4991;43.566;27.820;2023-08-08T05:21:37;98713.41;;;18.09;100.00
9905;BME280;4991;43.566;27.820;2023-08-08T05:24:03;98692.16;;;18.10;100.00
9905;BME280;4991;43.566;27.820;2023-08-08T05:26:28;98700.78;;;18.08;100.00
9905;BME280;4991;43.566;27.820;2023-08-08T05:28:55;98717.78;;;18.10;100.00
9905;BME280;4991;43.566;27.820;2023-08-08T05:31:21;98715.09;;;17.98;100.00
9905;BME280;4991;43.566;27.820;2023-08-08T05:33:48;98729.66;;;17.83;100.00
9905;BME280;4991;43.566;27.820;2023-08-08T05:36:14;98729.06;;;17.62;100.00
9905;BME280;4991;43.566;27.820;2023-08-08T05:38:40;98739.88;;;17.55;100.00
9905;BME280;4991;43.566;27.820;2023-08-08T05:41:07;98744.94;;;17.53;100.00
9905;BME280;4991;43.566;27.820;2023-08-08T05:43:33;98746.41;;;17.62;100.00
9905;BME280;4991;43.566;27.820;2023-08-08T05:45:59;98750.19;;;17.58;100.00
9905;BME280;4991;43.566;27.820;2023-08-08T05:48:25;98750.69;;;17.48;100.00
9905;BME280;4991;43.566;27.820;2023-08-08T05:50:50;98748.97;;;17.43;100.00
9905;BME280;4991;43.566;27.820;2023-08-08T05:53:16;98759.75;;;17.48;100.00
9905;BME280;4991;43.566;27.820;2023-08-08T05:55:41;98756.66;;;17.50;100.00
9905;BME280;4991;43.566;27.820;2023-08-08T05:58:10;98749.78;;;17.56;100.00
9905;BME280;4991;43.566;27.820;2023-08-08T06:00:37;98752.78;;;17.51;100.00
9905;BME280;4991;43.566;27.820;2023-08-08T06:03:03;98763.84;;;17.54;100.00
9905;BME280;4991;43.566;27.820;2023-08-08T06:05:29;98762.84;;;17.59;100.00
9905;BME280;4991;43.566;27.820;2023-08-08T06:07:55;98764.88;;;17.62;100.00
9905;BME280;4991;43.566;27.820;2023-08-08T06:10:21;98774.47;;;17.68;100.00
9905;BME280;4991;43.566;27.820;2023-08-08T06:12:47;98759.22;;;17.70;100.00
9905;BME280;4991;43.566;27.820;2023-08-08T06:15:13;98762.88;;;17.74;100.00
9905;BME280;4991;43.566;27.820;2023-08-08T06:17:39;98773.63;;;17.79;100.00
9905;BME280;4991;43.566;27.820;2023-08-08T06:20:05;98788.81;;;17.73;100.00
9905;BME280;4991;43.566;27.820;2023-08-08T06:22:32;98780.59;;;17.61;100.00
9905;BME280;4991;43.566;27.820;2023-08-08T06:24:58;98796.38;;;17.49;100.00
9905;BME280;4991;43.566;27.820;2023-08-08T06:27:23;98790.50;;;17.50;100.00
9905;BME280;4991;43.566;27.820;2023-08-08T06:29:49;98787.28;;;17.48;100.00
9905;BME280;4991;43.566;27.820;2023-08-08T06:32:15;98796.34;;;17.37;100.00
9905;BME280;4991;43.566;27.820;2023-08-08T06:34:40;98777.31;;;17.44;100.00
9905;BME280;4991;43.566;27.820;2023-08-08T06:37:06;98783.16;;;17.42;100.00
9905;BME280;4991;43.566;27.820;2023-08-08T06:39:32;98778.69;;;17.50;100.00
9905;BME280;4991;43.566;27.820;2023-08-08T06:41:58;98768.09;;;17.64;100.00
9905;BME280;4991;43.566;27.820;2023-08-08T06:44:23;98778.16;;;17.72;100.00
9905;BME280;4991;43.566;27.820;2023-08-08T06:46:49;98783.91;;;17.67;100.00
9905;BME280;4991;43.566;27.820;2023-08-08T06:49:14;98784.13;;;17.74;100.00
9905;BME280;4991;43.566;27.820;2023-08-08T06:51:40;98788.91;;;17.77;100.00
9905;BME280;4991;43.566;27.820;2023-08-08T06:54:06;98785.09;;;17.81;100.00
9905;BME280;4991;43.566;27.820;2023-08-08T06:56:33;98782.81;;;17.83;100.00
9905;BME280;4991;43.566;27.820;2023-08-08T06:58:59;98787.50;;;17.83;100.00
9905;BME280;4991;43.566;27.820;2023-08-08T07:01:24;98786.88;;;17.74;100.00
9905;BME280;4991;43.566;27.820;2023-08-08T07:03:50;98790.06;;;17.76;100.00
9905;BME280;4991;43.566;27.820;2023-08-08T07:06:18;98808.16;;;17.89;100.00
9905;BME280;4991;43.566;27.820;2023-08-08T07:08:44;98813.00;;;17.80;100.00
9905;BME280;4991;43.566;27.820;2023-08-08T07:11:10;98816.97;;;17.67;100.00
9905;BME280;4991;43.566;27.820;2023-08-08T07:13:36;98823.31;;;17.83;100.00
9905;BME280;4991;43.566;27.820;2023-08-08T07:16:02;98814.00;;;17.87;100.00
9905;BME280;4991;43.566;27.820;2023-08-08T07:18:27;98835.63;;;18.01;100.00
9905;BME280;4991;43.566;27.820;2023-08-08T07:20:53;98830.31;;;18.08;100.00
9905;BME280;4991;43.566;27.820;2023-08-08T07:23:19;98831.97;;;18.25;100.00
9905;BME280;4991;43.566;27.820;2023-08-08T07:25:47;98835.88;;;18.24;100.00
9905;BME280;4991;43.566;27.820;2023-08-08T07:28:13;98829.81;;;18.18;100.00
9905;BME280;4991;43.566;27.820;2023-08-08T07:30:40;98831.50;;;18.23;100.00
9905;BME280;4991;43.566;27.820;2023-08-08T07:33:08;98833.28;;;18.15;100.00
9905;BME280;4991;43.566;27.820;2023-08-08T07:35:34;98838.84;;;18.03;100.00
9905;BME280;4991;43.566;27.820;2023-08-08T07:38:00;98829.78;;;18.02;100.00
9905;BME280;4991;43.566;27.820;2023-08-08T07:40:25;98827.31;;;18.13;100.00
9905;BME280;4991;43.566;27.820;2023-08-08T07:42:51;98826.75;;;17.92;100.00
9905;BME280;4991;43.566;27.820;2023-08-08T07:45:18;98842.06;;;18.05;100.00
9905;BME280;4991;43.566;27.820;2023-08-08T07:47:44;98847.97;;;17.91;100.00
9905;BME280;4991;43.566;27.820;2023-08-08T07:50:10;98853.03;;;17.89;100.00
9905;BME280;4991;43.566;27.820;2023-08-08T07:52:37;98841.13;;;17.85;100.00
9905;BME280;4991;43.566;27.820;2023-08-08T07:55:04;98847.47;;;17.74;100.00
9905;BME280;4991;43.566;27.820;2023-08-08T07:57:30;98836.88;;;17.76;100.00
9905;BME280;4991;43.566;27.820;2023-08-08T07:59:57;98836.13;;;17.91;100.00
9905;BME280;4991;43.566;27.820;2023-08-08T08:02:22;98845.56;;;17.90;100.00
9905;BME280;4991;43.566;27.820;2023-08-08T08:04:48;98856.94;;;17.88;100.00
9905;BME280;4991;43.566;27.820;2023-08-08T08:07:13;98860.06;;;17.87;100.00
9905;BME280;4991;43.566;27.820;2023-08-08T08:09:39;98851.31;;;17.85;100.00
9905;BME280;4991;43.566;27.820;2023-08-08T08:12:08;98856.50;;;17.74;100.00
9905;BME280;4991;43.566;27.820;2023-08-08T08:14:34;98851.91;;;17.78;100.00
9905;BME280;4991;43.566;27.820;2023-08-08T08:17:00;98850.25;;;17.62;100.00
9905;BME280;4991;43.566;27.820;2023-08-08T08:19:25;98851.84;;;17.63;100.00
9905;BME280;4991;43.566;27.820;2023-08-08T08:21:51;98854.19;;;17.49;100.00
9905;BME280;4991;43.566;27.820;2023-08-08T08:24:17;98848.22;;;17.35;100.00
9905;BME280;4991;43.566;27.820;2023-08-08T08:26:43;98839.72;;;17.28;100.00
9905;BME280;4991;43.566;27.820;2023-08-08T08:29:09;98845.94;;;17.25;100.00
9905;BME280;4991;43.566;27.820;2023-08-08T08:31:34;98833.56;;;17.07;100.00
9905;BME280;4991;43.566;27.820;2023-08-08T08:34:00;98848.72;;;17.13;100.00
9905;BME280;4991;43.566;27.820;2023-08-08T08:36:25;98840.91;;;17.03;100.00
9905;BME280;4991;43.566;27.820;2023-08-08T08:38:51;98838.50;;;17.01;100.00
9905;BME280;4991;43.566;27.820;2023-08-08T08:41:18;98841.38;;;16.93;100.00
9905;BME280;4991;43.566;27.820;2023-08-08T08:43:46;98843.31;;;16.92;100.00
9905;BME280;4991;43.566;27.820;2023-08-08T08:46:14;98842.38;;;16.88;100.00
9905;BME280;4991;43.566;27.820;2023-08-08T08:48:44;98843.19;;;16.89;100.00
9905;BME280;4991;43.566;27.820;2023-08-08T08:51:10;98826.34;;;16.90;100.00
9905;BME280;4991;43.566;27.820;2023-08-08T08:53:36;98828.06;;;16.95;100.00
9905;BME280;4991;43.566;27.820;2023-08-08T08:56:04;98822.00;;;17.01;100.00
9905;BME280;4991;43.566;27.820;2023-08-08T08:58:29;98819.25;;;16.89;100.00
9905;BME280;4991;43.566;27.820;2023-08-08T09:00:56;98829.91;;;16.91;100.00
9905;BME280;4991;43.566;27.820;2023-08-08T09:03:24;98841.13;;;16.86;100.00
9905;BME280;4991;43.566;27.820;2023-08-08T09:05:51;98835.75;;;16.89;100.00
9905;BME280;4991;43.566;27.820;2023-08-08T09:08:18;98842.72;;;16.87;100.00
9905;BME280;4991;43.566;27.820;2023-08-08T09:10:44;98836.53;;;16.90;100.00
9905;BME280;4991;43.566;27.820;2023-08-08T09:13:09;98825.53;;;16.90;100.00
9905;BME280;4991;43.566;27.820;2023-08-08T09:15:35;98829.91;;;16.78;100.00
9905;BME280;4991;43.566;27.820;2023-08-08T09:18:01;98837.94;;;16.84;100.00
9905;BME280;4991;43.566;27.820;2023-08-08T09:20:27;98845.06;;;16.85;100.00
9905;BME280;4991;43.566;27.820;2023-08-08T09:22:56;98828.75;;;16.92;100.00
9905;BME280;4991;43.566;27.820;2023-08-08T09:25:23;98818.91;;;16.91;100.00
9905;BME280;4991;43.566;27.820;2023-08-08T09:27:52;98814.88;;;17.00;100.00
9905;BME280;4991;43.566;27.820;2023-08-08T09:30:21;98829.91;;;17.03;100.00
9905;BME280;4991;43.566;27.820;2023-08-08T09:32:46;98825.53;;;17.02;100.00
9905;BME280;4991;43.566;27.820;2023-08-08T09:35:12;98829.22;;;17.06;100.00
9905;BME280;4991;43.566;27.820;2023-08-08T09:37:38;98828.97;;;16.99;100.00
9905;BME280;4991;43.566;27.820;2023-08-08T09:40:05;98825.06;;;17.00;100.00
9905;BME280;4991;43.566;27.820;2023-08-08T09:42:35;98818.78;;;16.99;100.00
9905;BME280;4991;43.566;27.820;2023-08-08T09:45:01;98825.66;;;16.93;100.00
9905;BME280;4991;43.566;27.820;2023-08-08T09:47:27;98836.66;;;17.05;100.00
9905;BME280;4991;43.566;27.820;2023-08-08T09:50:00;98835.41;;;16.91;100.00
9905;BME280;4991;43.566;27.820;2023-08-08T09:52:29;98842.72;;;16.87;100.00
9905;BME280;4991;43.566;27.820;2023-08-08T09:54:56;98850.66;;;16.76;100.00
9905;BME280;4991;43.566;27.820;2023-08-08T09:57:25;98869.19;;;16.67;100.00
9905;BME280;4991;43.566;27.820;2023-08-08T09:59:52;98876.75;;;16.70;100.00
9905;BME280;4991;43.566;27.820;2023-08-08T10:02:18;98870.91;;;16.59;100.00
9905;BME280;4991;43.566;27.820;2023-08-08T10:04:47;98858.63;;;16.57;100.00
9905;BME280;4991;43.566;27.820;2023-08-08T10:07:14;98863.84;;;16.38;100.00
9905;BME280;4991;43.566;27.820;2023-08-08T10:09:40;98867.91;;;16.20;100.00
9905;BME280;4991;43.566;27.820;2023-08-08T10:12:07;98865.88;;;15.96;100.00
9905;BME280;4991;43.566;27.820;2023-08-08T10:14:36;98865.41;;;15.94;100.00
9905;BME280;4991;43.566;27.820;2023-08-08T10:17:04;98860.81;;;15.86;100.00
9905;BME280;4991;43.566;27.820;2023-08-08T10:19:30;98869.38;;;15.85;100.00
9905;BME280;4991;43.566;27.820;2023-08-08T10:22:00;98868.78;;;15.79;100.00
9905;BME280;4991;43.566;27.820;2023-08-08T10:24:38;98853.88;;;15.80;100.00
9905;BME280;4991;43.566;27.820;2023-08-08T10:27:04;98855.84;;;15.80;100.00
9905;BME280;4991;43.566;27.820;2023-08-08T10:29:32;98873.78;;;15.77;100.00
9905;BME280;4991;43.566;27.820;2023-08-08T10:32:00;98878.28;;;15.82;100.00
9905;BME280;4991;43.566;27.820;2023-08-08T10:34:37;98875.66;;;15.85;100.00
9905;BME280;4991;43.566;27.820;2023-08-08T10:37:05;98891.16;;;15.90;100.00
9905;BME280;4991;43.566;27.820;2023-08-08T10:39:33;98897.22;;;15.95;100.00
9905;BME280;4991;43.566;27.820;2023-08-08T10:42:02;98888.69;;;16.09;100.00
9905;BME280;4991;43.566;27.820;2023-08-08T10:44:28;98889.97;;;16.11;100.00
9905;BME280;4991;43.566;27.820;2023-08-08T10:46:55;98888.66;;;16.29;100.00
9905;BME280;4991;43.566;27.820;2023-08-08T10:49:22;98888.19;;;16.48;100.00
9905;BME280;4991;43.566;27.820;2023-08-08T10:51:49;98895.44;;;16.64;100.00
9905;BME280;4991;43.566;27.820;2023-08-08T10:54:24;98899.50;;;16.91;100.00
9905;BME280;4991;43.566;27.820;2023-08-08T10:56:57;98888.59;;;17.19;100.00
9905;BME280;4991;43.566;27.820;2023-08-08T10:59:39;98868.75;;;17.37;100.00
9905;BME280;4991;43.566;27.820;2023-08-08T11:02:05;98884.53;;;17.76;100.00
9905;BME280;4991;43.566;27.820;2023-08-08T11:04:31;98877.91;;;18.21;100.00
9905;BME280;4991;43.566;27.820;2023-08-08T11:06:58;98873.59;;;19.25;100.00
9905;BME280;4991;43.566;27.820;2023-08-08T11:09:24;98879.41;;;21.11;100.00
9905;BME280;4991;43.566;27.820;2023-08-08T11:11:52;98864.13;;;23.19;100.00
9905;BME280;4991;43.566;27.820;2023-08-08T11:14:19;98851.72;;;24.39;100.00
9905;BME280;4991;43.566;27.820;2023-08-08T11:16:48;98869.53;;;24.17;100.00
9905;BME280;4991;43.566;27.820;2023-08-08T11:19:15;98870.59;;;22.83;100.00
9905;BME280;4991;43.566;27.820;2023-08-08T11:21:43;98854.75;;;22.50;100.00
9905;BME280;4991;43.566;27.820;2023-08-08T11:24:10;98850.41;;;21.83;100.00
9905;BME280;4991;43.566;27.820;2023-08-08T11:26:38;98854.56;;;22.00;100.00
9905;BME280;4991;43.566;27.820;2023-08-08T11:29:05;98850.66;;;22.74;100.00
9905;BME280;4991;43.566;27.820;2023-08-08T11:31:33;98850.66;;;22.74;100.00
9905;BME280;4991;43.566;27.820;2023-08-08T11:33:59;98857.00;;;22.74;100.00
9905;BME280;4991;43.566;27.820;2023-08-08T11:36:34;98847.00;;;23.64;100.00
9905;BME280;4991;43.566;27.820;2023-08-08T11:39:02;98850.25;;;24.94;100.00
9905;BME280;4991;43.566;27.820;2023-08-08T11:41:34;98852.22;;;24.76;100.00
9905;BME280;4991;43.566;27.820;2023-08-08T11:44:05;98857.41;;;25.09;100.00
9905;BME280;4991;43.566;27.820;2023-08-08T11:46:32;98846.97;;;24.61;100.00
9905;BME280;4991;43.566;27.820;2023-08-08T11:49:04;98836.56;;;24.26;100.00
9905;BME280;4991;43.566;27.820;2023-08-08T11:51:32;98827.56;;;25.10;100.00
9905;BME280;4991;43.566;27.820;2023-08-08T11:54:01;98845.97;;;26.39;100.00
9905;BME280;4991;43.566;27.820;2023-08-08T11:56:27;98834.75;;;27.52;100.00
9905;BME280;4991;43.566;27.820;2023-08-08T11:58:54;98842.59;;;27.20;100.00
9905;BME280;4991;43.566;27.820;2023-08-08T12:01:22;98844.22;;;28.29;100.00
9905;BME280;4991;43.566;27.820;2023-08-08T12:03:48;98847.50;;;28.24;100.00
9905;BME280;4991;43.566;27.820;2023-08-08T12:06:15;98827.63;;;28.45;100.00
9905;BME280;4991;43.566;27.820;2023-08-08T12:08:45;98829.22;;;28.16;100.00
9905;BME280;4991;43.566;27.820;2023-08-08T12:11:13;98837.59;;;28.76;100.00
9905;BME280;4991;43.566;27.820;2023-08-08T12:13:41;98827.66;;;28.72;100.00
9905;BME280;4991;43.566;27.820;2023-08-08T12:16:11;98824.19;;;28.61;100.00
9905;BME280;4991;43.566;27.820;2023-08-08T12:18:37;98822.81;;;28.99;100.00
9905;BME280;4991;43.566;27.820;2023-08-08T12:21:04;98819.75;;;29.59;100.00
9905;BME280;4991;43.566;27.820;2023-08-08T12:23:31;98819.19;;;29.48;100.00
9905;BME280;4991;43.566;27.820;2023-08-08T12:25:58;98820.88;;;30.04;100.00
9905;BME280;4991;43.566;27.820;2023-08-08T12:28:23;98819.44;;;29.77;100.00
9905;BME280;4991;43.566;27.820;2023-08-08T12:30:50;98813.19;;;29.89;100.00
9905;BME280;4991;43.566;27.820;2023-08-08T12:33:16;98830.47;;;28.72;100.00
9905;BME280;4991;43.566;27.820;2023-08-08T12:35:42;98825.34;;;29.82;100.00
9905;BME280;4991;43.566;27.820;2023-08-08T12:38:07;98820.84;;;29.65;100.00
9905;BME280;4991;43.566;27.820;2023-08-08T12:40:34;98824.16;;;29.37;100.00
9905;BME280;4991;43.566;27.820;2023-08-08T12:43:00;98815.53;;;30.29;100.00
9905;BME280;4991;43.566;27.820;2023-08-08T12:45:26;98820.56;;;29.60;100.00
9905;BME280;4991;43.566;27.820;2023-08-08T12:47:52;98804.53;;;30.19;100.00
9905;BME280;4991;43.566;27.820;2023-08-08T12:50:19;98811.44;;;30.34;100.00
9905;BME280;4991;43.566;27.820;2023-08-08T12:52:45;98819.47;;;30.87;100.00
9905;BME280;4991;43.566;27.820;2023-08-08T12:55:10;98807.16;;;31.45;100.00
9905;BME280;4991;43.566;27.820;2023-08-08T12:57:37;98815.91;;;31.92;100.00
9905;BME280;4991;43.566;27.820;2023-08-08T13:00:05;98820.97;;;31.40;100.00